Time;durP1;ratioP1;P1;durP2;ratioP2;P2;SDS_P1;SDS_P2;PMS_P1;PMS_P2;Temp;Humidity;BMP_temperature;BMP_pressure;BME280_temperature;BME280_humidity;BME280_pressure;Samples;Min_cycle;Max_cycle;Signal;HPM_P1;HPM_P2
2022/05/13 00:00:52;;;;;;;1.80;1.10;;;17.00;91.50;;;;;;4159174;28;20049;-68
2022/05/13 00:02:53;;;;;;;2.08;1.23;;;17.00;91.20;;;;;;4157970;28;20057;-68
2022/05/13 00:04:53;;;;;;;5.18;1.30;;;16.90;91.10;;;;;;4156751;28;20044;-68
2022/05/13 00:06:54;;;;;;;4.10;1.38;;;16.90;91.20;;;;;;4153338;28;20037;-68
2022/05/13 00:08:55;;;;;;;4.25;1.70;;;16.90;90.70;;;;;;4149150;28;20076;-68
2022/05/13 00:10:56;;;;;;;2.22;1.17;;;16.80;90.60;;;;;;4139678;28;20041;-68
2022/05/13 00:12:56;;;;;;;6.22;1.40;;;16.80;90.30;;;;;;4150226;28;20033;-68
2022/05/13 00:14:58;;;;;;;4.75;1.85;;;16.70;90.60;;;;;;4159378;28;20056;-68
2022/05/13 00:16:59;;;;;;;3.57;1.30;;;16.70;91.80;;;;;;4156061;28;20528;-69
2022/05/13 00:18:59;;;;;;;2.38;1.48;;;16.60;92.00;;;;;;4156278;28;20084;-68
2022/05/13 00:21:00;;;;;;;2.42;1.10;;;16.60;92.50;;;;;;4152283;28;20084;-69
2022/05/13 00:23:01;;;;;;;5.10;1.55;;;16.60;92.20;;;;;;4158589;28;20030;-68
2022/05/13 00:25:02;;;;;;;2.17;1.10;;;16.60;92.50;;;;;;4158730;28;20045;-69
2022/05/13 00:27:03;;;;;;;2.75;1.23;;;16.50;92.50;;;;;;4157025;28;20034;-68
2022/05/13 00:29:04;;;;;;;3.17;1.25;;;16.50;92.80;;;;;;4159142;28;20030;-68
2022/05/13 00:31:05;;;;;;;2.90;1.40;;;16.50;92.30;;;;;;4158529;28;20099;-68
2022/05/13 00:33:06;;;;;;;3.65;1.02;;;16.50;92.20;;;;;;4152357;28;20064;-67
2022/05/13 00:35:08;;;;;;;3.42;1.50;;;16.50;92.40;;;;;;4158945;28;20171;-68
2022/05/13 00:37:08;;;;;;;4.68;1.48;;;16.40;92.30;;;;;;4157491;28;20439;-68
2022/05/13 00:39:09;;;;;;;2.53;1.20;;;16.40;92.40;;;;;;4154939;28;20040;-68
2022/05/13 00:41:10;;;;;;;3.30;1.02;;;16.40;92.20;;;;;;4160176;28;20093;-68
2022/05/13 00:43:13;;;;;;;4.15;1.75;;;16.40;91.90;;;;;;4155814;28;20033;-68
2022/05/13 00:45:15;;;;;;;4.32;1.27;;;16.40;92.20;;;;;;4159108;28;20026;-68
2022/05/13 00:47:15;;;;;;;2.35;1.40;;;16.40;92.00;;;;;;4153094;28;20397;-68
2022/05/13 00:49:17;;;;;;;3.05;1.40;;;16.40;91.70;;;;;;4158877;28;20038;-68
2022/05/13 00:51:22;;;;;;;1.90;0.98;;;16.30;91.90;;;;;;4155150;28;20033;-68
2022/05/13 00:53:24;;;;;;;1.88;1.10;;;16.30;91.60;;;;;;4158514;28;20037;-68
2022/05/13 00:55:30;;;;;;;2.97;1.43;;;16.30;91.40;;;;;;4155199;28;21073;-68
2022/05/13 00:57:31;;;;;;;2.40;1.27;;;16.20;91.10;;;;;;4158408;28;20068;-69
2022/05/13 00:59:36;;;;;;;3.30;1.15;;;16.10;91.50;;;;;;4155522;28;20039;-68
2022/05/13 01:01:36;;;;;;;3.47;1.30;;;16.10;91.70;;;;;;4153860;28;20401;-68
2022/05/13 01:03:38;;;;;;;2.17;1.40;;;16.00;91.70;;;;;;4155340;28;20048;-68
2022/05/13 01:05:42;;;;;;;4.00;1.60;;;16.10;91.30;;;;;;4153445;28;20069;-68
2022/05/13 01:07:43;;;;;;;4.88;1.60;;;16.00;91.90;;;;;;4153800;28;20030;-68
2022/05/13 01:09:56;;;;;;;3.80;1.30;;;15.90;91.70;;;;;;4155993;28;20040;-68
2022/05/13 01:12:01;;;;;;;2.22;1.10;;;15.90;91.70;;;;;;4159324;28;20381;-67
2022/05/13 01:14:07;;;;;;;5.35;1.52;;;15.80;92.10;;;;;;4153496;28;20029;-68
2022/05/13 01:16:08;;;;;;;2.50;1.40;;;15.80;92.20;;;;;;4159324;28;20042;-68
2022/05/13 01:18:10;;;;;;;2.20;1.13;;;15.80;92.60;;;;;;4154810;28;20103;-68
2022/05/13 01:20:15;;;;;;;2.58;1.40;;;15.80;93.10;;;;;;4158669;28;20511;-68
2022/05/13 01:22:17;;;;;;;4.43;1.63;;;15.70;93.20;;;;;;4156029;28;20484;-68
2022/05/13 01:24:20;;;;;;;5.07;1.33;;;15.70;93.10;;;;;;4157912;28;20096;-67
2022/05/13 01:26:26;;;;;;;3.13;1.25;;;15.70;92.90;;;;;;4160921;28;20037;-68
2022/05/13 01:28:34;;;;;;;3.40;1.55;;;15.70;92.90;;;;;;4155443;28;20063;-68
2022/05/13 01:30:40;;;;;;;4.90;1.55;;;15.70;93.00;;;;;;4159285;28;20057;-68
2022/05/13 01:32:40;;;;;;;3.65;1.48;;;15.70;93.60;;;;;;4154199;28;20040;-67
2022/05/13 01:34:42;;;;;;;3.13;1.50;;;15.60;93.50;;;;;;4155268;28;20484;-68
2022/05/13 01:36:42;;;;;;;2.63;1.52;;;15.60;93.70;;;;;;4156273;28;20064;-67
2022/05/13 01:38:43;;;;;;;2.00;1.27;;;15.60;93.90;;;;;;4154414;28;20034;-68
2022/05/13 01:40:44;;;;;;;3.47;1.33;;;15.60;93.60;;;;;;4157406;28;20014;-67
2022/05/13 01:42:45;;;;;;;5.72;2.13;;;15.60;94.30;;;;;;4154994;28;20050;-68
2022/05/13 01:44:45;;;;;;;3.42;1.50;;;15.50;94.00;;;;;;4160628;28;20477;-67
2022/05/13 01:46:46;;;;;;;3.47;1.63;;;15.50;94.30;;;;;;4151593;28;20109;-68
2022/05/13 01:48:47;;;;;;;3.78;1.60;;;15.50;94.20;;;;;;4159829;28;20403;-67
2022/05/13 01:50:48;;;;;;;3.55;1.42;;;15.40;94.00;;;;;;4160639;28;20033;-67
2022/05/13 01:52:49;;;;;;;2.88;1.80;;;15.40;94.50;;;;;;4151220;28;20043;-68
2022/05/13 01:54:50;;;;;;;3.95;1.67;;;15.30;94.00;;;;;;4161676;28;20049;-68
2022/05/13 01:56:50;;;;;;;2.83;1.70;;;15.30;93.90;;;;;;4158780;28;20041;-68
2022/05/13 01:58:51;;;;;;;3.20;1.65;;;15.20;94.20;;;;;;4158514;28;20072;-68
2022/05/13 02:00:54;;;;;;;4.32;1.55;;;15.10;94.60;;;;;;4156068;28;20033;-67
2022/05/13 02:05:13;;;;;;;3.63;1.80;;;15.00;94.60;;;;;;4160343;28;20495;-68
2022/05/13 02:07:14;;;;;;;5.10;1.63;;;15.00;94.60;;;;;;4152941;28;20026;-68
2022/05/13 02:09:15;;;;;;;5.13;1.58;;;14.90;94.60;;;;;;4154025;28;20026;-67
2022/05/13 02:11:17;;;;;;;5.47;1.65;;;14.90;95.20;;;;;;4157307;28;20405;-68
2022/05/13 02:13:18;;;;;;;6.43;1.77;;;14.80;95.20;;;;;;4156087;28;20044;-67
2022/05/13 02:15:18;;;;;;;4.32;1.90;;;14.70;95.10;;;;;;4154948;28;20026;-67
2022/05/13 02:17:19;;;;;;;3.45;1.63;;;14.70;95.10;;;;;;4159984;28;20030;-67
2022/05/13 02:19:19;;;;;;;5.97;1.70;;;14.60;95.00;;;;;;4157222;28;20081;-67
2022/05/13 02:21:20;;;;;;;6.00;1.50;;;14.60;94.90;;;;;;4153164;28;20041;-67
2022/05/13 02:23:22;;;;;;;6.43;1.70;;;14.50;95.30;;;;;;4157611;28;20053;-68
2022/05/13 02:25:23;;;;;;;4.28;1.48;;;14.50;95.00;;;;;;4161259;28;20308;-67
2022/05/13 02:27:24;;;;;;;4.93;1.75;;;14.40;94.80;;;;;;4156932;28;20374;-67
2022/05/13 02:29:24;;;;;;;6.70;1.65;;;14.30;95.30;;;;;;4157494;28;20029;-67
2022/05/13 02:31:25;;;;;;;5.50;1.83;;;14.30;95.40;;;;;;4157088;28;20087;-67
2022/05/13 02:33:27;;;;;;;3.92;1.48;;;14.30;95.80;;;;;;4153866;28;20037;-67
2022/05/13 02:35:28;;;;;;;8.73;2.28;;;14.20;96.40;;;;;;4158909;28;20045;-67
2022/05/13 02:37:29;;;;;;;4.47;1.67;;;14.20;97.10;;;;;;4151273;28;20034;-67
2022/05/13 02:39:30;;;;;;;5.32;1.77;;;14.10;96.10;;;;;;4157506;28;20061;-67
2022/05/13 02:41:30;;;;;;;5.10;1.50;;;14.10;96.90;;;;;;4152327;28;20121;-68
2022/05/13 02:43:31;;;;;;;4.95;1.92;;;14.10;96.20;;;;;;4155578;28;20049;-67
2022/05/13 02:45:32;;;;;;;7.95;2.33;;;14.00;96.50;;;;;;4151803;28;20113;-68
2022/05/13 02:47:32;;;;;;;5.32;1.80;;;13.90;97.50;;;;;;4156335;28;20041;-68
2022/05/13 02:49:33;;;;;;;5.57;1.88;;;13.90;96.30;;;;;;4157291;28;20041;-68
2022/05/13 02:51:34;;;;;;;4.68;1.88;;;13.90;96.50;;;;;;4156191;28;20045;-68
2022/05/13 02:53:34;;;;;;;4.63;1.73;;;13.90;97.50;;;;;;4155460;28;20030;-68
2022/05/13 02:55:35;;;;;;;7.07;1.90;;;13.80;96.80;;;;;;4155884;28;20033;-68
2022/05/13 02:57:36;;;;;;;5.45;1.80;;;13.80;96.80;;;;;;4157446;28;20113;-68
2022/05/13 02:59:36;;;;;;;5.72;2.00;;;13.80;97.80;;;;;;4151149;28;20038;-67
2022/05/13 03:01:37;;;;;;;4.43;1.55;;;13.80;97.70;;;;;;4152095;28;20124;-67
2022/05/13 03:03:39;;;;;;;7.32;1.88;;;13.80;97.20;;;;;;4155631;28;20025;-68
2022/05/13 03:05:40;;;;;;;6.18;1.90;;;13.70;97.00;;;;;;4160281;28;20400;-67
2022/05/13 03:07:41;;;;;;;7.43;1.90;;;13.70;97.00;;;;;;4157791;28;20029;-67
2022/05/13 03:09:41;;;;;;;4.00;1.63;;;13.70;97.60;;;;;;4159169;28;20029;-67
2022/05/13 03:11:42;;;;;;;6.25;1.73;;;13.70;96.90;;;;;;4154703;28;20041;-68
2022/05/13 03:13:43;;;;;;;5.00;1.65;;;13.60;98.20;;;;;;4158308;28;20025;-67
2022/05/13 03:15:44;;;;;;;4.38;1.58;;;13.60;97.40;;;;;;4150137;28;20064;-67
2022/05/13 03:17:44;;;;;;;5.53;1.80;;;13.50;97.40;;;;;;4158592;28;20548;-67
2022/05/13 03:19:45;;;;;;;8.80;1.92;;;13.50;97.40;;;;;;4159445;28;20051;-67
2022/05/13 03:21:45;;;;;;;6.03;1.95;;;13.50;98.00;;;;;;4158176;28;20025;-67
2022/05/13 03:23:47;;;;;;;5.88;1.70;;;13.50;98.40;;;;;;4159907;28;20046;-67
2022/05/13 03:25:47;;;;;;;4.38;1.50;;;13.40;98.00;;;;;;4158528;28;20093;-67
2022/05/13 03:27:48;;;;;;;5.80;1.80;;;13.40;97.80;;;;;;4153928;28;20053;-67
2022/05/13 03:29:48;;;;;;;5.43;1.95;;;13.40;97.80;;;;;;4160321;28;20036;-67
2022/05/13 03:31:49;;;;;;;4.28;1.70;;;13.40;98.40;;;;;;4157258;28;20411;-67
2022/05/13 03:33:50;;;;;;;3.70;1.58;;;13.40;97.40;;;;;;4157015;28;20042;-67
2022/05/13 03:35:50;;;;;;;5.05;1.60;;;13.30;98.00;;;;;;4156443;28;20134;-67
2022/05/13 03:37:51;;;;;;;7.15;1.85;;;13.30;99.10;;;;;;4156443;28;20506;-67
2022/05/13 03:39:51;;;;;;;7.28;1.80;;;13.30;99.60;;;;;;4158851;28;20042;-67
2022/05/13 03:41:52;;;;;;;4.13;1.30;;;13.30;98.90;;;;;;4157716;28;20397;-67
2022/05/13 03:43:53;;;;;;;5.32;1.33;;;13.30;98.70;;;;;;4158541;28;20112;-67
2022/05/13 03:45:53;;;;;;;4.38;1.83;;;13.30;99.00;;;;;;4158836;28;20041;-67
2022/05/13 03:47:54;;;;;;;6.18;2.10;;;13.30;99.60;;;;;;4160034;28;20033;-67
2022/05/13 03:49:54;;;;;;;4.45;1.30;;;13.30;99.30;;;;;;4158860;28;20038;-67
2022/05/13 03:51:56;;;;;;;4.93;1.20;;;13.30;99.60;;;;;;4154987;28;20052;-67
2022/05/13 03:53:58;;;;;;;3.10;1.52;;;13.40;99.70;;;;;;4156300;28;20057;-67
2022/05/13 03:55:58;;;;;;;4.23;1.33;;;13.40;99.90;;;;;;4156193;28;20132;-67
2022/05/13 03:57:59;;;;;;;5.25;1.83;;;13.30;99.30;;;;;;4156182;28;20029;-67
2022/05/13 04:00:00;;;;;;;5.80;1.70;;;13.40;99.60;;;;;;4157064;28;20030;-67
2022/05/13 04:02:02;;;;;;;4.82;1.70;;;13.30;99.50;;;;;;4157337;28;20485;-68
2022/05/13 04:04:02;;;;;;;5.35;1.75;;;13.30;99.60;;;;;;4157228;28;20072;-67
2022/05/13 04:10:41;;;;;;;3.75;1.58;;;13.20;99.90;;;;;;4155805;28;20038;-67
2022/05/13 04:17:20;;;;;;;6.07;1.83;;;13.20;99.90;;;;;;4156212;28;20029;-67
2022/05/13 04:19:21;;;;;;;5.25;1.40;;;13.10;99.90;;;;;;4155857;28;20052;-67
2022/05/13 04:21:26;;;;;;;6.43;1.67;;;13.20;99.90;;;;;;4157563;28;20073;-67
2022/05/13 04:23:27;;;;;;;7.40;1.75;;;13.10;99.90;;;;;;4154234;28;20116;-67
2022/05/13 04:25:27;;;;;;;5.20;1.85;;;13.20;99.90;;;;;;4155872;28;20037;-68
2022/05/13 04:27:28;;;;;;;3.47;1.17;;;13.20;99.90;;;;;;4153516;28;20045;-68
2022/05/13 04:29:28;;;;;;;7.95;2.20;;;13.20;99.90;;;;;;4158006;28;20037;-68
2022/05/13 04:31:33;;;;;;;7.95;1.98;;;13.10;99.90;;;;;;4156193;28;20083;-67
2022/05/13 04:33:34;;;;;;;6.28;1.83;;;13.20;99.90;;;;;;4153289;28;20049;-68
2022/05/13 04:35:34;;;;;;;7.55;1.70;;;13.20;99.90;;;;;;4153131;28;20049;-69
2022/05/13 04:37:37;;;;;;;3.47;1.50;;;13.20;99.90;;;;;;4159050;28;20121;-68
2022/05/13 04:39:37;;;;;;;8.82;2.60;;;13.20;99.90;;;;;;4158150;28;20053;-68
2022/05/13 04:43:59;;;;;;;7.97;1.80;;;13.10;99.90;;;;;;4153110;28;20037;-67
2022/05/13 04:45:59;;;;;;;7.65;1.85;;;13.10;99.90;;;;;;4156339;28;20578;-68
2022/05/13 04:48:16;;;;;;;5.22;1.77;;;13.10;99.90;;;;;;4159821;28;20028;-68
2022/05/13 04:50:17;;;;;;;6.57;1.88;;;13.10;99.90;;;;;;4150782;28;20413;-68
2022/05/13 04:52:17;;;;;;;6.72;1.98;;;13.20;99.90;;;;;;4156768;28;20083;-68
2022/05/13 04:54:18;;;;;;;4.40;1.67;;;13.20;99.90;;;;;;4160214;28;20117;-68
2022/05/13 04:56:20;;;;;;;5.78;1.60;;;13.20;99.90;;;;;;4162721;28;20026;-68
2022/05/13 04:58:24;;;;;;;5.75;1.60;;;13.20;99.90;;;;;;4159460;28;20046;-68
2022/05/13 05:00:26;;;;;;;5.13;1.60;;;13.30;99.90;;;;;;4154750;28;20038;-68
2022/05/13 05:02:28;;;;;;;13.90;2.15;;;13.40;99.90;;;;;;4160864;28;20029;-68
2022/05/13 05:04:28;;;;;;;10.90;2.60;;;13.40;99.90;;;;;;4152223;28;20045;-68
2022/05/13 05:06:29;;;;;;;9.07;2.05;;;13.40;99.90;;;;;;4159320;28;20574;-68
2022/05/13 05:08:30;;;;;;;7.10;2.00;;;13.50;99.90;;;;;;4157640;28;20033;-68
2022/05/13 05:10:31;;;;;;;8.88;2.38;;;13.50;99.90;;;;;;4159236;28;20087;-68
2022/05/13 05:12:32;;;;;;;5.45;2.03;;;13.40;99.90;;;;;;4160871;28;20424;-68
2022/05/13 05:14:33;;;;;;;7.60;2.10;;;13.40;99.90;;;;;;4154735;28;20034;-68
2022/05/13 05:16:33;;;;;;;5.53;2.33;;;13.50;99.90;;;;;;4153103;28;20038;-70
2022/05/13 05:18:36;;;;;;;6.00;1.98;;;13.50;99.90;;;;;;4163250;28;20480;-69
2022/05/13 05:20:37;;;;;;;7.63;2.13;;;13.60;99.90;;;;;;4154579;28;20033;-68
2022/05/13 05:22:38;;;;;;;7.68;2.40;;;13.50;99.90;;;;;;4157920;28;20041;-68
2022/05/13 05:24:38;;;;;;;6.78;1.95;;;13.60;99.90;;;;;;4161680;28;20033;-68
2022/05/13 05:26:39;;;;;;;5.05;2.00;;;13.60;99.90;;;;;;4159161;28;20022;-68
2022/05/13 05:28:41;;;;;;;9.82;2.88;;;13.70;99.90;;;;;;4157657;28;20025;-69
2022/05/13 05:30:42;;;;;;;5.13;1.90;;;13.70;99.90;;;;;;4160837;28;20144;-68
2022/05/13 05:32:43;;;;;;;9.20;2.67;;;13.70;99.90;;;;;;4160166;28;20041;-68
2022/05/13 05:34:44;;;;;;;12.43;3.13;;;13.70;99.90;;;;;;4161547;28;20424;-68
2022/05/13 05:36:44;;;;;;;11.10;2.58;;;13.70;99.90;;;;;;4160975;28;20801;-68
2022/05/13 05:38:45;;;;;;;9.10;2.67;;;13.80;99.90;;;;;;4160272;28;20041;-68
2022/05/13 05:40:45;;;;;;;7.40;2.35;;;13.80;99.90;;;;;;4159296;28;20022;-68
2022/05/13 05:42:48;;;;;;;7.88;2.00;;;13.80;99.90;;;;;;4157352;28;20051;-68
2022/05/13 05:44:49;;;;;;;19.70;2.88;;;13.80;99.90;;;;;;4155913;28;20045;-68
2022/05/13 05:46:49;;;;;;;8.93;2.42;;;13.80;99.90;;;;;;4159272;28;20481;-68
2022/05/13 05:48:50;;;;;;;12.40;2.78;;;13.70;99.90;;;;;;4158835;28;20026;-68
2022/05/13 05:50:52;;;;;;;8.18;2.53;;;13.80;99.90;;;;;;4161373;28;20033;-68
2022/05/13 05:52:53;;;;;;;6.00;1.85;;;13.90;99.90;;;;;;4156533;28;20025;-68
2022/05/13 05:57:15;;;;;;;7.75;2.40;;;13.90;99.90;;;;;;4153959;28;20036;-68
2022/05/13 05:59:16;;;;;;;7.88;2.42;;;14.00;99.90;;;;;;4156044;28;20076;-68
2022/05/13 06:01:17;;;;;;;9.65;2.58;;;14.00;99.90;;;;;;4155398;28;22095;-68
2022/05/13 06:03:18;;;;;;;6.05;2.10;;;14.00;99.90;;;;;;4157130;28;20117;-68
2022/05/13 06:05:19;;;;;;;4.75;1.98;;;14.00;99.90;;;;;;4159306;28;20088;-68
2022/05/13 06:07:19;;;;;;;8.98;2.90;;;14.10;99.90;;;;;;4159214;28;20038;-68
2022/05/13 06:09:20;;;;;;;7.40;2.03;;;14.10;99.90;;;;;;4156772;28;20033;-68
2022/05/13 06:11:23;;;;;;;10.32;2.80;;;14.20;99.90;;;;;;4159352;28;20033;-68
2022/05/13 06:13:24;;;;;;;9.82;2.55;;;14.40;99.90;;;;;;4159008;28;20036;-68
2022/05/13 06:15:25;;;;;;;5.35;2.60;;;14.60;99.90;;;;;;4158423;28;20060;-68
2022/05/13 06:17:25;;;;;;;12.25;2.60;;;15.10;99.90;;;;;;4158120;28;20041;-68
2022/05/13 06:19:26;;;;;;;9.70;3.00;;;15.40;99.90;;;;;;4157327;28;20463;-67
2022/05/13 06:21:33;;;;;;;7.47;2.13;;;15.60;99.90;;;;;;4157752;28;20050;-68
2022/05/13 06:23:35;;;;;;;6.63;2.10;;;15.60;99.90;;;;;;4158664;28;20044;-68
2022/05/13 06:25:36;;;;;;;7.10;2.33;;;15.80;99.90;;;;;;4157566;28;20497;-69
2022/05/13 06:27:38;;;;;;;6.63;2.03;;;15.60;99.50;;;;;;4157482;28;20057;-69
2022/05/13 06:29:39;;;;;;;8.68;2.50;;;15.50;99.90;;;;;;4158272;28;20374;-69
2022/05/13 06:31:39;;;;;;;11.38;2.45;;;15.50;99.60;;;;;;4154394;28;20041;-68
2022/05/13 06:33:40;;;;;;;7.50;2.25;;;15.50;99.90;;;;;;4157381;28;20057;-68
2022/05/13 06:35:41;;;;;;;8.05;2.38;;;15.40;99.90;;;;;;4157968;28;20060;-69
2022/05/13 06:37:42;;;;;;;14.75;2.60;;;15.40;99.90;;;;;;4157054;28;20042;-68
2022/05/13 06:39:42;;;;;;;13.00;2.25;;;15.30;99.60;;;;;;4152102;28;20061;-68
2022/05/13 06:41:43;;;;;;;9.80;2.45;;;15.30;99.90;;;;;;4152125;28;20925;-68
2022/05/13 06:43:45;;;;;;;12.15;2.50;;;15.20;99.90;;;;;;4155586;28;20075;-68
2022/05/13 06:45:46;;;;;;;8.15;2.63;;;15.10;99.90;;;;;;4156828;28;20057;-68
2022/05/13 06:47:46;;;;;;;7.75;1.92;;;15.10;99.90;;;;;;4154327;28;20583;-68
2022/05/13 06:49:47;;;;;;;10.65;2.50;;;15.10;99.90;;;;;;4156805;28;20049;-68
2022/05/13 06:51:48;;;;;;;7.25;2.42;;;15.10;99.90;;;;;;4151722;28;20040;-68
2022/05/13 06:53:48;;;;;;;9.32;2.25;;;15.10;99.90;;;;;;4157382;28;20095;-68
2022/05/13 06:55:49;;;;;;;7.75;2.55;;;15.10;99.90;;;;;;4154873;28;20043;-68
2022/05/13 06:57:50;;;;;;;7.70;2.60;;;15.10;99.90;;;;;;4152523;28;20116;-68
2022/05/13 06:59:51;;;;;;;9.32;2.67;;;15.00;99.90;;;;;;4155692;28;20471;-68
2022/05/13 07:01:52;;;;;;;8.13;2.30;;;15.00;99.90;;;;;;4155027;28;21641;-68
2022/05/13 07:03:52;;;;;;;7.90;2.45;;;15.00;99.90;;;;;;4156903;28;20484;-68
2022/05/13 07:05:53;;;;;;;7.05;2.20;;;15.10;99.90;;;;;;4156280;28;20942;-68
2022/05/13 07:07:54;;;;;;;9.48;2.35;;;15.10;99.90;;;;;;4156766;28;20060;-68
2022/05/13 07:09:54;;;;;;;8.55;2.55;;;15.10;99.90;;;;;;4152549;28;20045;-68
2022/05/13 07:11:55;;;;;;;7.22;2.47;;;15.10;99.90;;;;;;4172120;28;20039;-68
2022/05/13 07:13:55;;;;;;;9.60;2.72;;;15.20;99.90;;;;;;4156095;28;21571;-68
2022/05/13 07:15:58;;;;;;;7.68;2.30;;;15.30;99.90;;;;;;4157737;28;20045;-68
2022/05/13 07:17:59;;;;;;;9.15;2.00;;;15.30;99.90;;;;;;4157457;28;20824;-68
2022/05/13 07:19:59;;;;;;;6.55;2.00;;;15.20;99.90;;;;;;4158581;28;20041;-68
2022/05/13 07:22:03;;;;;;;7.57;2.33;;;15.30;99.90;;;;;;4157691;28;20041;-68
2022/05/13 07:24:04;;;;;;;9.95;2.53;;;15.30;99.90;;;;;;4158570;28;20041;-68
2022/05/13 07:26:05;;;;;;;10.85;2.72;;;15.40;99.90;;;;;;4157240;28;20401;-68
2022/05/13 07:28:06;;;;;;;9.68;2.50;;;15.30;99.90;;;;;;4158965;28;20037;-68
2022/05/13 07:30:07;;;;;;;9.18;2.70;;;15.40;99.90;;;;;;4157171;28;20487;-69
2022/05/13 07:32:08;;;;;;;7.82;2.25;;;15.50;99.90;;;;;;4157625;28;20033;-69
2022/05/13 07:34:09;;;;;;;12.07;2.70;;;15.50;99.90;;;;;;4156897;28;20026;-68
2022/05/13 07:36:10;;;;;;;5.85;1.95;;;15.60;99.90;;;;;;4149272;28;20045;-68
2022/05/13 07:38:10;;;;;;;8.07;2.33;;;15.70;99.90;;;;;;4158517;28;20029;-68
2022/05/13 07:42:31;;;;;;;8.48;2.30;;;15.80;99.90;;;;;;4156803;28;20069;-68
2022/05/13 07:44:32;;;;;;;12.13;3.08;;;15.90;99.90;;;;;;4157811;28;20436;-68
2022/05/13 07:46:33;;;;;;;8.18;2.53;;;16.00;99.90;;;;;;4158943;28;20103;-68
2022/05/13 07:48:33;;;;;;;9.43;2.55;;;16.00;99.90;;;;;;4159367;28;20119;-68
2022/05/13 07:50:34;;;;;;;12.05;3.10;;;16.10;99.90;;;;;;4157879;28;20515;-68
2022/05/13 07:52:36;;;;;;;8.13;2.40;;;16.10;99.80;;;;;;4156311;28;20041;-69
2022/05/13 07:54:37;;;;;;;9.18;2.30;;;16.10;99.90;;;;;;4156901;28;20034;-70
2022/05/13 07:56:38;;;;;;;9.35;2.20;;;16.20;99.90;;;;;;4155650;28;20404;-69
2022/05/13 07:58:38;;;;;;;8.75;2.53;;;16.30;99.60;;;;;;4157317;28;20033;-69
2022/05/13 08:00:39;;;;;;;11.25;2.97;;;16.40;99.30;;;;;;4156382;28;20144;-69
2022/05/13 08:02:40;;;;;;;10.50;2.55;;;16.40;99.90;;;;;;4155718;28;20044;-69
2022/05/13 08:04:40;;;;;;;14.32;2.80;;;16.50;99.60;;;;;;4157727;28;20033;-68
2022/05/13 08:06:42;;;;;;;10.20;2.47;;;16.50;99.60;;;;;;4157377;28;20564;-68
2022/05/13 08:08:46;;;;;;;6.93;2.15;;;16.50;99.70;;;;;;4159173;28;20029;-69
2022/05/13 08:10:54;;;;;;;8.85;2.45;;;16.60;99.00;;;;;;4156490;28;21189;-69
2022/05/13 08:12:55;;;;;;;7.80;2.50;;;16.60;99.00;;;;;;4156220;28;20033;-69
2022/05/13 08:14:55;;;;;;;11.07;2.60;;;16.70;99.30;;;;;;4157262;28;20137;-68
2022/05/13 08:16:56;;;;;;;9.57;2.60;;;16.80;99.40;;;;;;4156827;28;20034;-68
2022/05/13 08:19:01;;;;;;;8.07;2.20;;;16.90;98.20;;;;;;4157394;28;20041;-68
2022/05/13 08:21:03;;;;;;;7.40;2.00;;;17.10;98.70;;;;;;4157494;28;20046;-68
2022/05/13 08:23:04;;;;;;;7.93;2.25;;;17.20;98.20;;;;;;4156642;28;20473;-68
2022/05/13 08:25:05;;;;;;;8.35;2.55;;;17.20;97.50;;;;;;4158021;28;20045;-68
2022/05/13 08:27:06;;;;;;;7.35;2.25;;;17.30;97.20;;;;;;4156710;28;20412;-69
2022/05/13 08:29:06;;;;;;;9.30;2.60;;;17.50;97.60;;;;;;4157684;28;20133;-68
2022/05/13 08:31:08;;;;;;;11.13;2.70;;;17.60;97.70;;;;;;4157988;28;20044;-70
2022/05/13 08:33:09;;;;;;;9.68;2.50;;;17.70;97.00;;;;;;4157098;28;20560;-69
2022/05/13 08:35:11;;;;;;;7.97;2.33;;;17.80;96.90;;;;;;4154929;28;20040;-69
2022/05/13 08:37:11;;;;;;;6.28;1.98;;;17.90;97.00;;;;;;4155519;28;20025;-69
2022/05/13 08:39:12;;;;;;;10.15;2.67;;;17.90;96.80;;;;;;4145555;28;20540;-69
2022/05/13 08:41:28;;;;;;;9.32;2.20;;;17.90;96.60;;;;;;4152434;28;20080;-68
2022/05/13 08:43:34;;;;;;;10.23;2.35;;;18.00;95.20;;;;;;4156369;28;20049;-68
2022/05/13 08:45:37;;;;;;;8.93;2.55;;;17.90;95.80;;;;;;4155577;28;20057;-68
2022/05/13 08:47:54;;;;;;;8.88;2.40;;;17.90;95.00;;;;;;4155256;28;20049;-70
2022/05/13 08:50:01;;;;;;;6.72;2.00;;;18.00;95.70;;;;;;4156696;28;20026;-69
2022/05/13 08:54:40;;;;;;;9.93;2.65;;;18.20;95.20;;;;;;4155979;28;20080;-69
2022/05/13 08:56:47;;;;;;;8.13;2.45;;;18.30;94.80;;;;;;4157192;28;20403;-69
2022/05/13 08:59:13;;;;;;;7.28;2.28;;;18.30;94.70;;;;;;4150841;28;20036;-69
2022/05/13 09:01:20;;;;;;;13.48;2.55;;;18.30;95.70;;;;;;4155385;28;20029;-69
2022/05/13 09:03:42;;;;;;;9.27;2.75;;;18.30;94.70;;;;;;4155526;28;20038;-69
2022/05/13 09:05:49;;;;;;;7.43;1.83;;;18.40;94.40;;;;;;4155980;28;20116;-69
2022/05/13 09:07:51;;;;;;;7.03;2.58;;;18.40;95.40;;;;;;4157620;28;20036;-69
2022/05/13 09:09:57;;;;;;;4.53;1.70;;;18.50;94.30;;;;;;4156326;28;20041;-68
2022/05/13 09:12:21;;;;;;;6.80;1.98;;;18.60;94.50;;;;;;4153771;28;20057;-69
2022/05/13 09:14:22;;;;;;;6.35;2.33;;;18.70;94.40;;;;;;4151071;28;20049;-69
2022/05/13 09:16:38;;;;;;;9.55;2.00;;;18.80;93.80;;;;;;4155935;28;20037;-68
2022/05/13 09:19:12;;;;;;;10.32;2.03;;;18.90;93.70;;;;;;4155524;28;20033;-69
2022/05/13 09:21:17;;;;;;;6.43;2.03;;;19.00;93.60;;;;;;4152548;28;20042;-69
2022/05/13 09:23:18;;;;;;;6.22;1.95;;;19.10;92.40;;;;;;4153071;28;20052;-69
2022/05/13 09:25:55;;;;;;;5.82;1.85;;;19.20;92.70;;;;;;4155168;28;20419;-69
2022/05/13 09:28:15;;;;;;;5.20;1.75;;;19.30;92.20;;;;;;4155341;28;20028;-69
2022/05/13 09:30:22;;;;;;;7.45;2.20;;;19.30;91.50;;;;;;4154529;28;20342;-69
2022/05/13 09:32:30;;;;;;;5.40;1.73;;;19.40;92.60;;;;;;4158819;28;20081;-69
2022/05/13 09:34:47;;;;;;;4.63;1.70;;;19.40;92.20;;;;;;4158556;28;20045;-69
2022/05/13 09:36:49;;;;;;;5.55;1.85;;;19.40;91.40;;;;;;4158910;28;20585;-69
2022/05/13 09:39:14;;;;;;;6.22;1.80;;;19.20;90.80;;;;;;4159710;28;20036;-69
2022/05/13 09:41:34;;;;;;;9.57;2.20;;;19.10;90.80;;;;;;4158382;28;20432;-69
2022/05/13 09:43:38;;;;;;;9.52;2.33;;;19.10;91.70;;;;;;4159873;28;21323;-70
2022/05/13 09:45:39;;;;;;;5.53;1.77;;;19.10;91.30;;;;;;4159379;28;20037;-70
2022/05/13 09:47:40;;;;;;;5.80;1.80;;;19.00;92.10;;;;;;4159264;28;20029;-69
2022/05/13 09:49:43;;;;;;;5.57;2.03;;;18.80;91.20;;;;;;4158497;28;20057;-69
2022/05/13 09:52:00;;;;;;;3.78;1.85;;;18.70;91.40;;;;;;4157489;28;20026;-69
2022/05/13 09:54:15;;;;;;;7.28;1.60;;;18.60;91.80;;;;;;4160211;28;20495;-69
2022/05/13 09:56:33;;;;;;;6.30;1.83;;;18.50;91.90;;;;;;4159235;28;20461;-69
2022/05/13 09:58:49;;;;;;;6.57;1.83;;;18.40;92.30;;;;;;4159529;28;20030;-69
2022/05/13 10:01:00;;;;;;;5.13;2.00;;;18.40;91.80;;;;;;4155609;28;20030;-69
2022/05/13 10:03:18;;;;;;;5.88;1.77;;;18.30;92.10;;;;;;4159294;28;20037;-69
2022/05/13 10:05:26;;;;;;;10.15;2.13;;;18.30;92.00;;;;;;4157218;28;20037;-69
2022/05/13 10:07:26;;;;;;;3.20;1.48;;;18.30;92.00;;;;;;4158856;28;20041;-69
2022/05/13 10:14:30;;;;;;;7.90;2.10;;;18.20;91.80;;;;;;4156000;28;20033;-69
2022/05/13 10:16:34;;;;;;;6.43;1.90;;;18.20;91.70;;;;;;4159314;28;20045;-69
2022/05/13 10:18:38;;;;;;;5.80;1.85;;;18.10;92.00;;;;;;4152433;28;20046;-69
2022/05/13 10:20:42;;;;;;;5.95;2.17;;;18.20;91.80;;;;;;4157004;28;20046;-69
2022/05/13 10:22:56;;;;;;;6.25;2.08;;;18.20;91.20;;;;;;4157768;28;20040;-69
2022/05/13 10:25:03;;;;;;;6.15;1.90;;;18.20;91.80;;;;;;4159694;28;20042;-69
2022/05/13 10:27:07;;;;;;;7.10;2.08;;;18.20;92.20;;;;;;4158618;28;20087;-69
2022/05/13 10:29:16;;;;;;;5.30;2.25;;;18.20;91.10;;;;;;4156998;28;20041;-68
2022/05/13 10:31:20;;;;;;;9.60;2.53;;;18.20;91.20;;;;;;4157877;28;20078;-69
2022/05/13 10:33:42;;;;;;;7.70;2.63;;;18.30;93.00;;;;;;4157221;28;20453;-69
2022/05/13 10:36:09;;;;;;;12.88;2.17;;;18.40;92.80;;;;;;4152070;28;20038;-68
2022/05/13 10:38:16;;;;;;;5.75;2.08;;;18.50;91.40;;;;;;4158992;28;20022;-69
2022/05/13 10:40:20;;;;;;;6.55;1.73;;;18.70;93.90;;;;;;4157407;28;20488;-69
2022/05/13 10:42:43;;;;;;;9.02;2.45;;;18.80;92.40;;;;;;4157160;28;20129;-68
2022/05/13 10:44:53;;;;;;;4.90;2.00;;;18.90;91.00;;;;;;4160010;28;20388;-68
2022/05/13 10:46:58;;;;;;;5.85;1.70;;;19.00;91.50;;;;;;4157607;28;20033;-69
2022/05/13 10:48:59;;;;;;;9.73;2.67;;;19.10;91.00;;;;;;4159868;28;20492;-69
2022/05/13 10:51:20;;;;;;;9.80;2.45;;;19.10;90.60;;;;;;4158925;28;20076;-68
2022/05/13 10:53:33;;;;;;;7.78;1.92;;;19.20;90.10;;;;;;4156728;28;20036;-69
2022/05/13 10:55:46;;;;;;;9.45;2.33;;;19.20;89.60;;;;;;4157218;28;20050;-68
2022/05/13 10:58:16;;;;;;;6.50;2.10;;;19.10;89.50;;;;;;4156835;28;20428;-68
2022/05/13 11:00:28;;;;;;;5.72;2.15;;;19.10;91.70;;;;;;4158887;28;20083;-68
2022/05/13 11:02:46;;;;;;;10.07;2.45;;;19.10;90.60;;;;;;4156844;28;20504;-68
2022/05/13 11:05:10;;;;;;;4.95;1.85;;;19.20;91.60;;;;;;4158142;28;20778;-67
2022/05/13 11:07:17;;;;;;;6.65;2.20;;;19.30;91.70;;;;;;4158228;28;20030;-68